Tinker Air Force Base
KTIK : now visible

Airfield :











YOU CAN JOIN US ON...

 
LOGIN :

Register | Disclaimer

   EN    FR    IT 

 









Legend :    VFR   Marginal VFR   IFR   Intensive IFR   Very Intensive IFR
Visi :
Ceiling :
>= 8 km
>= 3000ft
5 to 8 km
1000 to 3000 ft
1500m to 5 km
500 to 1000 ft
800 to 1500m
200 to 500 ft
< 800m
< 200 ft
Symbols :   Thunderstorms  Fog  Heavy snow  Heavy precipitations  Wind > 20 kt






- Airport Elevation : 1291 ft


KTIK - Tinker Air Force Base

CURRENT METAR :
  • 061056Z AUTO 18007KT 10SM CLR 23/21 A2996 RMK AO2 SLP137 T02250213 $

EXPIRED METARs :
  • 060956Z AUTO 16007KT 10SM CLR 24/22 A2996 RMK AO2 SLP136 T02350221 $
  • 060856Z AUTO 16007KT 10SM CLR 24/22 A2995 RMK AO2 SLP133 T02360224 55000 $

TAF TAF KTIK
Valid from the 06 at 09:00 until the 07 at 15:00 UTC


060900Z 0609/0715 VRB06KT 9999 SKC QNH2985INS TX36/0622Z TN23/0612Z
KZFW FIR / North America



MET'MAP, your aeronautical weather chart ! - Copyright ORBIFLY December 2007 - Disclaimer

ORBIFLY MET'MAP TEAM :

Programming & Development : Alexandra Zaïnal
Concept & original design : Baudouin d'Aumeries
Assistance for programming : Marc-Olivier Méhu
Technical & hardware support : Manuel Goepfert

Contact : metmap@orbifly.com




SOURCES & CREDITS :

   NOAA       Earth
Advisory